Historique des mesures à Cassis (13260), France
Quotidien Résumé Octobre 11, 2018 Unités:  Métrique    US   Métrique/US
« Précédent (Jour)
Suivant (Jour) »
Quotidien Hebdomadaire Mensuel Annuel Période au choix
  Maximum: Minimum: Moyenne:
Température: TemperatureC °C 17.4 °C 18.9 °C
Point de rosée: DewpointC °C 15.5 °C 15.9 °C
Humidité: Humidity % 75 % 79 %
Vitesse du vent: 0 km/h 0 km/h 8.7 km/h
Rafales: 0 km/h - -
Vent:- - ESE
Pression: PressurehPa hPa 1008.2 hPa -
Précipitations: 5.1 mm    
Historical Graphs
 
 
Mesures pour : Octobre 11, 2018
Heure Temperature Point de rosée Pression Vent Vitesse du vent Rafales Humidité Pluie (par heure) Conditions
TemperatureC °C DewpointC °C PressurehPa hPa Calm     Humidity % HourlyPrecipMM mm SoftwareType W/m2
00:10 17.4 °C 15.8 °C 1009.3 hPa ESE 27.2 km/h 37 km/h 90 % 3.6 mm open2300-1.11 W/m2
01:10 17.4 °C 15.8 °C 1009.4 hPa ESE 11.6 km/h 11.6 km/h 90 % 3.0 mm open2300-1.11 W/m2
02:10 17.4 °C 15.8 °C 1009.0 hPa SSE 9.8 km/h 20.3 km/h 90 % 1.0 mm open2300-1.11 W/m2
03:10 17.8 °C 16.2 °C 1008.2 hPa ESE 9.8 km/h 13.4 km/h 90 % 0.0 mm open2300-1.11 W/m2
04:10 17.9 °C 15.9 °C 1008.3 hPa SE 19.6 km/h 19.6 km/h 88 % 0.0 mm open2300-1.11 W/m2
05:10 17.9 °C 15.7 °C 1008.4 hPa NE 5.8 km/h 6.4 km/h 87 % 0.0 mm open2300-1.11 W/m2
06:10 18.2 °C 16.0 °C 1008.4 hPa ESE 9.8 km/h 9.8 km/h 87 % 0.0 mm open2300-1.11 W/m2
07:10 18.1 °C 15.9 °C 1009.1 hPa SE 36.5 km/h 36.5 km/h 87 % 0.0 mm open2300-1.11 W/m2
08:10 18.1 °C 15.7 °C 1009.2 hPa ESE 8 km/h 10.5 km/h 86 % 0.0 mm open2300-1.11 W/m2
09:10 18.8 °C 16.2 °C 1009.9 hPa SE 7.6 km/h 13.4 km/h 85 % 0.0 mm open2300-1.11 W/m2
10:10 19.6 °C 16.8 °C 1011.0 hPa Calm   15.1 km/h 84 % 0.0 mm open2300-1.11 W/m2
11:10 20.1 °C 17.1 °C 1011.2 hPa ESE 2.3 km/h 5.8 km/h 83 % 0.0 mm open2300-1.11 W/m2
12:10 20.9 °C 17.3 °C 1011.3 hPa SSE 6.9 km/h 14.5 km/h 80 % 0.0 mm open2300-1.11 W/m2
13:10 22.1 °C 17.9 °C 1011.3 hPa ESE 4.7 km/h 12.2 km/h 77 % 0.0 mm open2300-1.11 W/m2
14:10 22.3 °C 17.9 °C 1011.0 hPa NE 5.1 km/h 5.1 km/h 76 % 0.0 mm open2300-1.11 W/m2
15:10 22.8 °C 18.1 °C 1011.1 hPa East 3.5 km/h 6.4 km/h 75 % 0.0 mm open2300-1.11 W/m2
16:10 23.2 °C 18.5 °C 1011.6 hPa ESE 7.6 km/h 7.6 km/h 75 % 0.0 mm open2300-1.11 W/m2
17:10 22.3 °C 17.9 °C 1012.1 hPa East 4 km/h 6.4 km/h 76 % 0.0 mm open2300-1.11 W/m2
18:10 21.6 °C 17.2 °C 1012.5 hPa East 12.2 km/h 12.2 km/h 76 % 0.0 mm open2300-1.11 W/m2
19:10 20.6 °C 16.4 °C 1013.3 hPa Calm   6.9 km/h 77 % 0.0 mm open2300-1.11 W/m2
20:10 19.8 °C 15.9 °C 1014.2 hPa SW 7.6 km/h 7.6 km/h 78 % 0.0 mm open2300-1.11 W/m2
21:10 19.5 °C 16.0 °C 1014.9 hPa ESE 4.7 km/h 4.7 km/h 80 % 0.0 mm open2300-1.11 W/m2
22:10 19.4 °C 15.9 °C 1015.6 hPa SSE 9.3 km/h 9.3 km/h 80 % 0.0 mm open2300-1.11 W/m2
23:10 19.0 °C 15.5 °C 1015.8 hPa NE 3.5 km/h 5.1 km/h 80 % 0.0 mm open2300-1.11 W/m2
Observations météo à CASSIS
WU-History script by Weather Underground - 1 mb